Time;durP1;ratioP1;P1;durP2;ratioP2;P2;SDS_P1;SDS_P2;PMS_P1;PMS_P2;Temp;Humidity;BMP_temperature;BMP_pressure;BME280_temperature;BME280_humidity;BME280_pressure;Samples;Min_cycle;Max_cycle;Signal;HPM_P1;HPM_P2
2022/07/18 00:00:09;;;;;;;11.15;6.15;;;19.30;99.80;;;;;;9185389;19;20750;-69
2022/07/18 00:03:13;;;;;;;9.63;6.22;;;19.20;99.90;;;;;;9184244;19;20492;-68
2022/07/18 00:06:17;;;;;;;10.15;6.45;;;19.10;99.90;;;;;;9186988;19;20014;-68
2022/07/18 00:09:22;;;;;;;11.82;6.10;;;18.80;99.90;;;;;;9181641;19;20006;-69
2022/07/18 00:12:26;;;;;;;11.75;6.80;;;19.10;99.90;;;;;;9184395;19;20025;-68
2022/07/18 00:15:32;;;;;;;10.02;6.05;;;19.10;99.90;;;;;;9181381;19;20070;-69
2022/07/18 00:18:36;;;;;;;11.93;7.10;;;19.00;99.90;;;;;;9183495;19;20082;-68
2022/07/18 00:21:40;;;;;;;12.88;6.30;;;19.00;99.90;;;;;;9179405;19;20015;-68
2022/07/18 00:24:44;;;;;;;10.35;6.30;;;19.00;99.90;;;;;;9181190;19;20040;-68
2022/07/18 00:27:48;;;;;;;12.55;7.10;;;18.80;99.90;;;;;;9180355;19;20521;-68
2022/07/18 00:30:55;;;;;;;11.27;6.95;;;18.70;99.90;;;;;;9185834;19;20018;-68
2022/07/18 00:34:00;;;;;;;11.35;7.38;;;18.80;99.90;;;;;;9183925;19;20014;-68
2022/07/18 00:37:03;;;;;;;9.77;7.32;;;18.70;99.90;;;;;;9184885;19;20010;-68
2022/07/18 00:40:09;;;;;;;11.80;7.10;;;18.70;99.90;;;;;;9180554;19;20018;-68
2022/07/18 00:43:15;;;;;;;12.88;7.50;;;18.70;99.90;;;;;;9180784;19;20015;-68
2022/07/18 00:46:23;;;;;;;11.27;7.43;;;18.60;99.90;;;;;;9182879;19;20479;-68
2022/07/18 00:49:27;;;;;;;11.55;6.95;;;18.80;99.90;;;;;;9179675;19;20014;-68
2022/07/18 00:52:31;;;;;;;10.88;7.00;;;18.70;99.90;;;;;;9180251;19;20010;-68
2022/07/18 00:55:35;;;;;;;12.50;7.40;;;18.40;99.90;;;;;;9179573;19;20475;-68
2022/07/18 00:58:39;;;;;;;11.35;7.57;;;18.50;99.90;;;;;;9182403;19;20018;-68
2022/07/18 01:01:45;;;;;;;13.95;7.55;;;18.50;99.90;;;;;;9178285;19;20018;-68
2022/07/18 01:04:49;;;;;;;13.98;7.97;;;18.50;99.90;;;;;;9183521;19;20030;-68
2022/07/18 01:07:53;;;;;;;10.88;7.30;;;18.30;99.90;;;;;;9178989;19;20018;-68
2022/07/18 01:10:57;;;;;;;11.23;7.45;;;18.30;99.90;;;;;;9182192;19;20017;-68
2022/07/18 01:14:02;;;;;;;12.43;7.30;;;18.00;99.90;;;;;;9178233;19;20052;-68
2022/07/18 01:17:17;;;;;;;12.98;7.45;;;18.30;99.90;;;;;;9179383;19;20007;-68
2022/07/18 01:20:21;;;;;;;12.88;7.75;;;18.30;99.90;;;;;;9176640;19;20015;-68
2022/07/18 01:23:28;;;;;;;12.18;7.57;;;18.40;99.90;;;;;;9178696;19;20021;-68
2022/07/18 01:26:33;;;;;;;10.73;6.97;;;18.20;99.90;;;;;;9180379;19;20010;-68
2022/07/18 01:29:37;;;;;;;10.73;7.25;;;18.20;99.90;;;;;;9181283;19;20022;-68
2022/07/18 01:32:41;;;;;;;13.02;7.60;;;18.30;99.90;;;;;;9176094;19;20066;-68
2022/07/18 01:35:46;;;;;;;13.45;8.05;;;18.20;99.90;;;;;;9178375;19;20021;-68
2022/07/18 01:38:52;;;;;;;14.18;8.20;;;18.20;99.90;;;;;;9178158;19;20360;-68
2022/07/18 01:41:58;;;;;;;13.57;7.63;;;18.20;99.90;;;;;;9179332;19;20021;-68
2022/07/18 01:45:02;;;;;;;11.70;7.00;;;18.20;99.90;;;;;;9182286;19;20476;-68
2022/07/18 01:48:06;;;;;;;12.40;7.40;;;18.10;99.90;;;;;;9176795;19;20024;-68
2022/07/18 01:51:11;;;;;;;15.18;7.85;;;17.90;99.90;;;;;;9184511;19;20524;-68
2022/07/18 01:54:18;;;;;;;16.73;7.78;;;17.90;99.90;;;;;;9178603;19;20011;-68
2022/07/18 01:57:22;;;;;;;16.10;7.50;;;17.90;99.90;;;;;;9184504;19;20074;-69
2022/07/18 02:00:26;;;;;;;12.75;7.22;;;18.00;99.90;;;;;;9181350;19;20015;-68
2022/07/18 02:03:29;;;;;;;13.40;7.55;;;17.90;99.90;;;;;;9182209;19;20033;-68
2022/07/18 02:06:33;;;;;;;12.23;7.68;;;17.70;99.90;;;;;;9177464;19;20390;-68
2022/07/18 02:09:40;;;;;;;12.65;7.30;;;17.80;99.90;;;;;;9176810;19;20043;-68
2022/07/18 02:12:44;;;;;;;13.15;7.47;;;17.80;99.90;;;;;;9180694;19;20025;-68
2022/07/18 02:15:48;;;;;;;11.27;7.30;;;17.80;99.90;;;;;;9180075;19;20498;-68
2022/07/18 02:18:52;;;;;;;12.50;7.20;;;17.80;99.90;;;;;;9181955;19;20006;-68
2022/07/18 02:21:56;;;;;;;13.95;7.40;;;17.70;99.90;;;;;;9174057;19;20364;-68
2022/07/18 02:25:03;;;;;;;14.50;7.90;;;17.70;99.90;;;;;;9179322;19;20030;-69
2022/07/18 02:28:07;;;;;;;16.17;8.18;;;17.50;99.90;;;;;;9186952;19;20086;-68
2022/07/18 02:31:11;;;;;;;11.32;7.25;;;17.40;99.90;;;;;;9189373;19;20015;-68
2022/07/18 02:34:15;;;;;;;15.75;8.50;;;17.50;99.90;;;;;;9185328;19;20025;-68
2022/07/18 02:37:20;;;;;;;13.40;7.72;;;17.50;99.90;;;;;;9185374;19;20668;-68
2022/07/18 02:40:27;;;;;;;13.90;7.60;;;17.20;99.90;;;;;;9186049;19;20074;-68
2022/07/18 02:43:31;;;;;;;13.82;8.45;;;17.30;99.90;;;;;;9182532;19;20014;-68
2022/07/18 02:46:35;;;;;;;12.38;7.15;;;17.20;99.90;;;;;;9185414;19;20022;-68
2022/07/18 02:49:39;;;;;;;14.48;7.82;;;17.30;99.90;;;;;;9186727;19;20343;-67
2022/07/18 02:52:43;;;;;;;13.55;7.50;;;17.20;99.90;;;;;;9187895;19;20014;-68
2022/07/18 02:55:50;;;;;;;16.60;7.55;;;17.30;99.90;;;;;;9184400;19;20014;-68
2022/07/18 02:58:53;;;;;;;10.95;6.72;;;17.20;99.90;;;;;;9185119;19;20020;-68
2022/07/18 03:01:58;;;;;;;11.63;7.05;;;17.40;99.90;;;;;;9185993;19;20086;-68
2022/07/18 03:05:02;;;;;;;11.95;6.50;;;17.30;99.90;;;;;;9187042;19;20042;-68
2022/07/18 03:08:06;;;;;;;15.27;7.03;;;17.30;99.90;;;;;;9186328;19;20070;-68
2022/07/18 03:11:13;;;;;;;14.23;6.65;;;17.20;99.90;;;;;;9184698;19;20018;-68
2022/07/18 03:14:17;;;;;;;10.75;7.03;;;17.30;99.90;;;;;;9185123;19;20017;-68
2022/07/18 03:17:21;;;;;;;12.93;7.13;;;17.20;99.90;;;;;;9184034;19;20002;-68
2022/07/18 03:20:25;;;;;;;11.48;7.32;;;17.30;99.90;;;;;;9185056;19;20060;-68
2022/07/18 03:23:28;;;;;;;11.98;6.82;;;17.20;99.90;;;;;;9184246;19;20010;-68
2022/07/18 03:26:35;;;;;;;13.75;7.63;;;17.20;99.90;;;;;;9187524;19;20082;-68
2022/07/18 03:29:39;;;;;;;11.73;6.88;;;17.10;99.90;;;;;;9183884;19;20096;-68
2022/07/18 03:32:43;;;;;;;12.50;7.03;;;17.10;99.90;;;;;;9179718;19;20811;-68
2022/07/18 03:35:46;;;;;;;11.13;6.70;;;17.00;99.90;;;;;;9183745;19;20072;-68
2022/07/18 03:38:51;;;;;;;11.35;6.93;;;17.00;99.90;;;;;;9181365;19;20018;-68
2022/07/18 03:41:58;;;;;;;11.75;7.30;;;16.70;99.90;;;;;;9182523;19;20018;-68
2022/07/18 03:45:01;;;;;;;13.40;7.32;;;16.90;99.90;;;;;;9187390;19;20022;-68
2022/07/18 03:48:06;;;;;;;10.57;7.05;;;17.10;99.90;;;;;;9182337;19;20479;-68
2022/07/18 03:51:10;;;;;;;12.57;7.03;;;16.80;99.90;;;;;;9182759;19;20022;-68
2022/07/18 03:54:17;;;;;;;11.98;7.03;;;17.00;99.90;;;;;;9182712;19;20345;-68
2022/07/18 03:57:24;;;;;;;12.57;6.93;;;17.00;99.90;;;;;;9187001;19;20010;-67
2022/07/18 04:00:27;;;;;;;14.90;7.28;;;16.90;99.90;;;;;;9186221;19;20015;-68
2022/07/18 04:03:31;;;;;;;11.27;7.15;;;16.80;99.90;;;;;;9180884;19;20010;-68
2022/07/18 04:06:36;;;;;;;14.43;7.20;;;16.80;99.90;;;;;;9183599;19;20021;-68
2022/07/18 04:09:39;;;;;;;11.80;6.97;;;16.90;99.90;;;;;;9181978;19;20011;-68
2022/07/18 04:12:53;;;;;;;12.40;7.00;;;16.80;99.90;;;;;;9185933;19;20014;-68
2022/07/18 04:15:57;;;;;;;13.82;7.22;;;16.80;99.90;;;;;;9181372;19;20018;-68
2022/07/18 04:19:01;;;;;;;12.38;7.35;;;16.80;99.90;;;;;;9180291;19;20562;-68
2022/07/18 04:22:05;;;;;;;11.10;6.75;;;16.90;99.90;;;;;;9179185;19;20086;-68
2022/07/18 04:25:10;;;;;;;12.52;7.38;;;16.70;99.90;;;;;;9182377;19;20086;-68
2022/07/18 04:28:16;;;;;;;12.95;7.20;;;16.70;99.90;;;;;;9181002;19;20022;-68
2022/07/18 04:31:20;;;;;;;11.82;6.93;;;16.60;99.90;;;;;;9181493;19;20029;-67
2022/07/18 04:34:24;;;;;;;13.75;7.30;;;16.50;99.90;;;;;;9183999;19;20492;-68
2022/07/18 04:37:28;;;;;;;14.85;7.15;;;17.00;99.90;;;;;;9180904;19;20018;-68
2022/07/18 04:40:33;;;;;;;13.13;7.20;;;16.60;99.90;;;;;;9180701;19;20007;-68
2022/07/18 04:43:40;;;;;;;14.32;6.72;;;16.70;99.90;;;;;;9178463;19;20033;-68
2022/07/18 04:46:44;;;;;;;15.00;7.13;;;16.50;99.90;;;;;;9178981;19;20109;-68
2022/07/18 04:49:48;;;;;;;13.13;7.10;;;16.70;99.90;;;;;;9182145;19;20569;-69
2022/07/18 04:52:52;;;;;;;12.77;6.60;;;16.40;99.90;;;;;;9179410;19;20124;-68
2022/07/18 04:55:56;;;;;;;14.07;6.75;;;16.50;99.90;;;;;;9180358;19;20366;-68
2022/07/18 04:59:02;;;;;;;13.48;6.78;;;16.70;99.90;;;;;;9183764;19;20010;-68
2022/07/18 05:02:06;;;;;;;11.43;6.70;;;16.60;99.90;;;;;;9179512;19;20018;-68
2022/07/18 05:05:12;;;;;;;13.82;6.63;;;16.70;99.90;;;;;;9179048;19;20488;-68
2022/07/18 05:08:16;;;;;;;12.57;6.68;;;16.80;99.90;;;;;;9179354;19;20042;-68
2022/07/18 05:11:20;;;;;;;11.65;6.18;;;16.80;99.90;;;;;;9178964;19;20021;-68
2022/07/18 05:14:27;;;;;;;12.73;6.82;;;16.60;99.90;;;;;;9180750;19;20022;-68
2022/07/18 05:17:31;;;;;;;15.13;7.28;;;16.60;99.90;;;;;;9179094;19;20106;-68
2022/07/18 05:20:35;;;;;;;14.15;6.85;;;16.70;99.90;;;;;;9183382;19;20006;-68
2022/07/18 05:23:38;;;;;;;14.65;7.40;;;16.80;99.90;;;;;;9177569;19;20026;-68
2022/07/18 05:26:42;;;;;;;10.40;6.32;;;16.60;99.90;;;;;;9178785;19;20025;-67
2022/07/18 05:29:49;;;;;;;11.68;6.80;;;16.60;99.90;;;;;;9178664;19;20471;-68
2022/07/18 05:32:54;;;;;;;16.48;6.93;;;16.80;99.90;;;;;;9182094;19;20029;-68
2022/07/18 05:35:58;;;;;;;12.77;7.50;;;16.90;99.90;;;;;;9179191;19;20010;-69
2022/07/18 05:39:02;;;;;;;11.50;6.25;;;16.90;99.90;;;;;;9180543;19;20094;-69
2022/07/18 05:42:07;;;;;;;12.85;7.22;;;16.80;99.90;;;;;;9178693;19;20070;-68
2022/07/18 05:45:14;;;;;;;9.52;5.93;;;16.90;99.90;;;;;;9180506;19;20070;-68
2022/07/18 05:48:18;;;;;;;;;;;16.80;99.90;;;;;;9180103;19;20014;-68
2022/07/18 05:51:22;;;;;;;12.40;6.65;;;17.00;99.90;;;;;;9179015;19;20404;-68
2022/07/18 05:54:26;;;;;;;12.98;6.03;;;16.90;99.90;;;;;;9180330;19;20010;-69
2022/07/18 05:57:30;;;;;;;13.98;6.63;;;17.00;99.90;;;;;;9178516;19;20048;-69
2022/07/18 06:00:36;;;;;;;11.82;5.95;;;16.80;99.90;;;;;;9185422;19;20493;-69
2022/07/18 06:03:40;;;;;;;11.18;6.53;;;16.80;99.90;;;;;;9186427;19;20015;-69
2022/07/18 06:06:45;;;;;;;12.23;6.35;;;17.20;99.90;;;;;;9187780;19;20046;-69
2022/07/18 06:09:49;;;;;;;8.57;5.72;;;16.90;99.90;;;;;;9190862;19;20011;-68
2022/07/18 06:12:53;;;;;;;11.57;6.10;;;17.10;99.90;;;;;;9190922;19;20460;-68
2022/07/18 06:15:59;;;;;;;10.20;5.80;;;17.10;99.90;;;;;;9190599;19;20020;-68
2022/07/18 06:19:03;;;;;;;9.75;6.30;;;17.30;99.90;;;;;;9185945;19;20074;-69
2022/07/18 06:22:07;;;;;;;9.70;6.22;;;17.20;99.90;;;;;;9180073;19;20081;-69
2022/07/18 06:25:12;;;;;;;9.90;5.80;;;17.20;99.90;;;;;;9186451;19;20399;-68
2022/07/18 06:28:16;;;;;;;9.70;5.20;;;17.40;99.90;;;;;;9183442;19;20046;-68
2022/07/18 06:31:23;;;;;;;10.77;5.55;;;17.40;99.90;;;;;;9186232;19;20121;-68
2022/07/18 06:34:27;;;;;;;10.02;5.45;;;17.40;99.90;;;;;;9187135;19;20023;-69
2022/07/18 06:37:31;;;;;;;8.75;5.50;;;17.50;99.90;;;;;;9188861;19;20023;-69
2022/07/18 06:40:35;;;;;;;9.50;5.30;;;17.40;99.90;;;;;;9186494;19;20032;-69
2022/07/18 06:43:41;;;;;;;8.60;5.28;;;17.50;99.90;;;;;;9185130;19;20023;-68
2022/07/18 06:46:47;;;;;;;9.82;5.60;;;17.30;99.90;;;;;;9187178;19;20040;-68
2022/07/18 06:49:51;;;;;;;9.68;5.10;;;17.70;99.90;;;;;;9186717;19;20364;-69
2022/07/18 06:52:55;;;;;;;8.88;4.63;;;17.60;99.90;;;;;;9191394;19;20062;-69
2022/07/18 06:55:59;;;;;;;10.70;5.30;;;17.40;99.90;;;;;;9193512;19;20021;-69
2022/07/18 06:59:03;;;;;;;10.88;4.70;;;17.50;99.90;;;;;;9185962;19;20527;-69
2022/07/18 07:02:09;;;;;;;9.68;5.03;;;17.70;99.90;;;;;;9187917;19;20026;-69
2022/07/18 07:05:14;;;;;;;8.63;4.55;;;17.80;99.90;;;;;;9184478;19;20501;-69
2022/07/18 07:08:19;;;;;;;8.75;4.78;;;17.70;99.90;;;;;;9187941;19;20015;-69
2022/07/18 07:11:23;;;;;;;7.75;3.97;;;18.10;99.90;;;;;;9183899;19;20212;-68
2022/07/18 07:14:27;;;;;;;8.98;4.30;;;18.00;99.90;;;;;;9190026;19;20014;-69
2022/07/18 07:17:33;;;;;;;6.93;4.32;;;18.20;99.90;;;;;;9183350;19;20695;-69
2022/07/18 07:20:37;;;;;;;11.48;3.92;;;18.10;99.90;;;;;;9186431;19;20034;-69
2022/07/18 07:23:41;;;;;;;6.38;3.78;;;18.20;99.90;;;;;;9184431;19;20019;-69
2022/07/18 07:26:45;;;;;;;8.15;3.28;;;18.20;99.90;;;;;;9187899;19;20022;-69
2022/07/18 07:29:49;;;;;;;8.07;3.20;;;18.30;99.90;;;;;;9183192;19;20006;-69
2022/07/18 07:32:55;;;;;;;6.07;3.20;;;18.60;99.90;;;;;;9183398;19;20025;-68
2022/07/18 07:35:59;;;;;;;6.40;3.30;;;18.80;99.90;;;;;;9182407;19;20014;-69
2022/07/18 07:39:04;;;;;;;5.65;2.53;;;18.70;99.90;;;;;;9183147;19;20025;-69
2022/07/18 07:42:08;;;;;;;4.47;2.60;;;18.80;99.80;;;;;;9188341;19;20018;-69
2022/07/18 07:45:14;;;;;;;8.05;2.65;;;18.80;99.40;;;;;;9183237;19;20014;-69
2022/07/18 07:48:20;;;;;;;4.68;2.67;;;18.90;98.90;;;;;;9185197;19;20017;-68
2022/07/18 07:51:25;;;;;;;4.00;2.65;;;19.00;98.60;;;;;;9183600;19;20018;-68
2022/07/18 07:54:29;;;;;;;6.85;2.67;;;19.00;98.70;;;;;;9189917;19;20401;-69
2022/07/18 07:57:35;;;;;;;4.88;2.47;;;19.30;99.10;;;;;;9192450;19;20013;-69
2022/07/18 08:00:39;;;;;;;6.30;2.90;;;19.30;98.20;;;;;;9181384;19;20007;-69
2022/07/18 08:03:48;;;;;;;8.02;2.70;;;19.40;98.70;;;;;;9180672;19;20014;-69
2022/07/18 08:06:52;;;;;;;6.82;2.30;;;19.40;97.60;;;;;;9182107;19;20039;-69
2022/07/18 08:09:56;;;;;;;5.47;2.25;;;19.60;97.10;;;;;;9183594;19;20024;-68
2022/07/18 08:13:01;;;;;;;3.63;1.98;;;19.60;97.00;;;;;;9181652;19;20022;-69
2022/07/18 08:16:05;;;;;;;6.30;2.85;;;19.80;97.40;;;;;;9185632;19;20014;-69
2022/07/18 08:19:12;;;;;;;5.28;2.20;;;19.90;97.60;;;;;;9181127;19;20078;-69
2022/07/18 08:22:17;;;;;;;5.15;2.50;;;20.10;98.00;;;;;;9178856;19;20070;-68
2022/07/18 08:25:21;;;;;;;4.47;2.45;;;20.20;96.90;;;;;;9183318;19;20014;-69
2022/07/18 08:28:26;;;;;;;5.40;2.20;;;20.20;96.60;;;;;;9180123;19;20423;-69
2022/07/18 08:31:30;;;;;;;5.07;2.15;;;20.40;97.20;;;;;;9182638;19;20018;-69
2022/07/18 08:34:36;;;;;;;4.40;1.98;;;20.30;96.00;;;;;;9181142;19;20018;-69
2022/07/18 08:37:41;;;;;;;4.47;2.05;;;20.50;95.70;;;;;;9183632;19;20052;-69
2022/07/18 08:40:46;;;;;;;6.80;2.20;;;20.50;95.40;;;;;;9183388;19;20081;-69
2022/07/18 08:43:51;;;;;;;4.97;2.15;;;20.50;95.20;;;;;;9184590;19;20014;-69
2022/07/18 08:46:57;;;;;;;3.40;1.75;;;20.60;95.40;;;;;;9173454;19;20093;-69
2022/07/18 08:50:04;;;;;;;3.42;1.80;;;20.80;95.00;;;;;;9185339;19;20021;-68
2022/07/18 08:53:08;;;;;;;4.38;2.25;;;20.70;95.10;;;;;;9182878;19;20014;-69
2022/07/18 08:56:12;;;;;;;5.50;2.00;;;21.00;94.40;;;;;;9180089;19;20007;-69
2022/07/18 08:59:16;;;;;;;3.80;2.03;;;21.10;94.70;;;;;;9183533;19;20492;-69
2022/07/18 09:02:20;;;;;;;5.88;2.20;;;21.30;94.20;;;;;;9180201;19;20353;-69
2022/07/18 09:05:26;;;;;;;4.55;1.95;;;21.30;93.30;;;;;;9178243;19;20011;-69
2022/07/18 09:08:30;;;;;;;5.85;2.08;;;21.40;92.60;;;;;;9179180;19;20531;-69
2022/07/18 09:11:34;;;;;;;7.03;2.10;;;21.60;92.20;;;;;;9184083;19;20347;-69
2022/07/18 09:14:40;;;;;;;5.57;1.88;;;21.60;92.70;;;;;;9178640;19;20568;-68
2022/07/18 09:17:44;;;;;;;2.97;1.93;;;21.60;91.30;;;;;;9176929;19;20018;-67
2022/07/18 09:21:03;;;;;;;6.78;2.05;;;21.70;90.60;;;;;;9182116;19;20017;-68
2022/07/18 09:24:07;;;;;;;4.25;2.22;;;21.80;91.30;;;;;;9183088;19;20018;-68
2022/07/18 09:27:26;;;;;;;7.13;2.13;;;21.80;90.60;;;;;;9178089;19;20031;-67
2022/07/18 09:30:32;;;;;;;4.45;1.90;;;21.70;90.50;;;;;;9178497;19;20022;-68
2022/07/18 09:33:36;;;;;;;4.77;1.83;;;21.90;90.40;;;;;;9177601;19;20018;-67
2022/07/18 09:36:58;;;;;;;5.05;2.08;;;21.80;90.70;;;;;;9179411;19;20010;-68
2022/07/18 09:40:17;;;;;;;6.25;1.83;;;22.00;91.20;;;;;;9179811;19;20077;-68
2022/07/18 09:43:22;;;;;;;5.82;2.10;;;21.90;90.90;;;;;;9173804;19;20025;-68
2022/07/18 09:46:26;;;;;;;5.95;2.13;;;22.00;91.60;;;;;;9177078;19;20010;-68
2022/07/18 09:49:32;;;;;;;4.78;2.10;;;21.90;91.50;;;;;;9177860;19;20006;-68
2022/07/18 09:52:39;;;;;;;8.48;2.08;;;22.00;90.90;;;;;;9179115;19;20038;-68
2022/07/18 09:55:48;;;;;;;3.40;1.70;;;22.00;91.00;;;;;;9177421;19;20011;-68
2022/07/18 09:58:54;;;;;;;5.68;1.90;;;22.10;91.30;;;;;;9177274;19;20015;-68
2022/07/18 10:01:58;;;;;;;6.00;1.80;;;22.20;91.30;;;;;;9177332;19;20074;-68
2022/07/18 10:05:02;;;;;;;5.90;2.17;;;22.30;91.10;;;;;;9175986;19;20571;-68
2022/07/18 10:08:12;;;;;;;7.85;1.80;;;22.40;91.00;;;;;;9177412;19;20394;-68
2022/07/18 10:11:16;;;;;;;4.13;1.55;;;22.50;90.80;;;;;;9180862;19;20022;-69
2022/07/18 10:14:20;;;;;;;4.60;1.77;;;22.60;87.50;;;;;;9179203;19;20458;-68
2022/07/18 10:17:25;;;;;;;5.38;1.90;;;22.50;87.10;;;;;;9176730;19;20484;-68
2022/07/18 10:20:36;;;;;;;5.18;1.83;;;22.70;85.90;;;;;;9174826;19;20025;-68
2022/07/18 10:23:46;;;;;;;5.20;2.00;;;22.90;86.70;;;;;;9174907;19;20025;-68
2022/07/18 10:27:17;;;;;;;4.22;2.00;;;22.80;86.30;;;;;;9172009;19;20036;-70
2022/07/18 10:30:46;;;;;;;6.05;1.90;;;23.00;83.50;;;;;;9178611;19;20488;-70
2022/07/18 10:33:50;;;;;;;3.60;2.00;;;23.00;82.30;;;;;;9174702;19;20017;-69
2022/07/18 10:37:11;;;;;;;4.72;1.90;;;23.20;84.50;;;;;;9178744;19;20207;-68
2022/07/18 10:40:28;;;;;;;5.65;1.90;;;23.20;84.90;;;;;;9170302;19;20055;-69
2022/07/18 10:43:36;;;;;;;;;;;23.30;86.90;;;;;;9169851;19;20022;-68
2022/07/18 10:47:08;;;;;;;3.35;1.85;;;23.40;82.80;;;;;;9177631;19;19978;-69
2022/07/18 10:50:13;;;;;;;6.90;2.00;;;23.40;83.90;;;;;;9185053;19;20044;-69
2022/07/18 10:53:17;;;;;;;8.43;2.17;;;23.40;80.80;;;;;;9188132;19;20033;-70
2022/07/18 10:56:44;;;;;;;5.93;2.50;;;23.40;77.40;;;;;;9186752;19;20022;-70
2022/07/18 11:00:07;;;;;;;5.50;2.05;;;23.30;75.50;;;;;;9186809;19;20018;-71
2022/07/18 11:03:13;;;;;;;5.10;1.88;;;23.60;73.90;;;;;;9179392;19;20018;-69
2022/07/18 11:06:16;;;;;;;4.15;1.95;;;23.70;74.20;;;;;;9185788;19;20341;-70
2022/07/18 11:09:38;;;;;;;5.80;2.03;;;23.80;75.50;;;;;;9183830;19;20094;-69
2022/07/18 11:12:44;;;;;;;5.57;2.40;;;23.90;74.70;;;;;;9182916;19;20006;-68
2022/07/18 11:15:57;;;;;;;5.10;2.15;;;23.90;74.60;;;;;;9184233;19;20427;-69
2022/07/18 11:19:22;;;;;;;5.35;2.00;;;24.10;73.90;;;;;;9178201;19;20017;-69
2022/07/18 11:22:27;;;;;;;6.80;2.50;;;24.40;73.80;;;;;;9178008;19;20011;-70
2022/07/18 11:25:31;;;;;;;5.15;2.03;;;24.40;73.50;;;;;;9176048;19;20026;-69
2022/07/18 11:28:38;;;;;;;6.28;2.20;;;24.40;72.90;;;;;;9176169;19;20122;-68
2022/07/18 11:31:46;;;;;;;5.93;2.60;;;24.30;74.00;;;;;;9181813;19;20010;-68
2022/07/18 11:34:53;;;;;;;4.95;2.50;;;24.40;71.30;;;;;;9185752;19;20285;-68
2022/07/18 11:37:57;;;;;;;;;;;24.70;68.90;;;;;;9185295;19;20026;-68
2022/07/18 11:41:01;;;;;;;7.03;2.85;;;24.80;66.10;;;;;;9180072;19;20344;-68
2022/07/18 11:44:07;;;;;;;6.93;3.05;;;24.90;67.60;;;;;;9184949;19;20073;-68
2022/07/18 11:47:16;;;;;;;6.03;3.50;;;24.90;67.00;;;;;;9181863;19;20091;-68
2022/07/18 11:50:29;;;;;;;10.98;3.70;;;25.30;65.50;;;;;;9182616;19;20013;-68
2022/07/18 11:53:33;;;;;;;4.57;2.90;;;25.30;64.60;;;;;;9182853;19;20014;-68
2022/07/18 11:56:48;;;;;;;6.82;3.35;;;25.40;64.70;;;;;;9181097;19;20066;-69
2022/07/18 11:59:55;;;;;;;5.13;3.00;;;25.70;62.80;;;;;;9181719;19;20010;-69
2022/07/18 12:03:11;;;;;;;;;;;25.60;60.40;;;;;;9183499;19;20019;-68
2022/07/18 12:06:17;;;;;;;5.65;3.25;;;25.70;59.70;;;;;;9180684;19;20006;-69
2022/07/18 12:09:29;;;;;;;7.97;3.83;;;26.00;60.10;;;;;;9183217;19;20041;-69
2022/07/18 12:12:39;;;;;;;8.27;2.88;;;26.10;59.50;;;;;;9180960;19;20007;-68
2022/07/18 12:15:47;;;;;;;6.30;3.28;;;26.30;60.50;;;;;;9181693;19;20488;-68
2022/07/18 12:18:52;;;;;;;5.43;3.85;;;26.10;56.90;;;;;;9181491;19;20066;-69
2022/07/18 12:21:58;;;;;;;6.63;3.15;;;26.30;57.10;;;;;;9180963;19;20044;-69
2022/07/18 12:25:02;;;;;;;5.13;3.20;;;26.30;58.50;;;;;;9181305;19;20491;-70
2022/07/18 12:28:16;;;;;;;5.05;3.58;;;26.40;57.50;;;;;;9181847;19;20070;-69
2022/07/18 12:31:44;;;;;;;8.18;3.60;;;26.60;56.00;;;;;;9181672;19;20026;-69
2022/07/18 12:34:57;;;;;;;6.82;3.70;;;26.50;52.70;;;;;;9180906;19;20014;-68
2022/07/18 12:38:03;;;;;;;5.13;3.38;;;26.70;54.90;;;;;;9182353;19;20011;-68
2022/07/18 12:41:07;;;;;;;5.37;3.30;;;26.80;54.40;;;;;;9180335;19;20525;-69
2022/07/18 12:44:16;;;;;;;6.95;4.00;;;26.90;54.00;;;;;;9179823;19;20392;-70
2022/07/18 12:47:23;;;;;;;6.53;3.40;;;27.00;53.40;;;;;;9181342;19;20492;-70
2022/07/18 12:50:27;;;;;;;5.78;3.25;;;26.90;53.00;;;;;;9178894;19;20078;-70
2022/07/18 12:53:33;;;;;;;4.85;3.50;;;27.10;52.60;;;;;;9180138;19;20483;-69
2022/07/18 12:56:37;;;;;;;5.53;3.40;;;27.10;55.20;;;;;;9181679;19;20345;-71
2022/07/18 12:59:41;;;;;;;6.55;3.38;;;27.40;54.50;;;;;;9178796;19;20086;-71
2022/07/18 13:02:49;;;;;;;8.30;3.10;;;27.50;53.20;;;;;;9179307;19;20019;-73
2022/07/18 13:05:53;;;;;;;6.82;3.53;;;27.50;53.10;;;;;;9176145;19;20006;-70
2022/07/18 13:08:57;;;;;;;5.93;3.20;;;27.50;52.00;;;;;;9177488;19;20021;-71
2022/07/18 13:12:04;;;;;;;7.20;3.63;;;27.70;53.40;;;;;;9182434;19;20078;-71
2022/07/18 13:15:09;;;;;;;5.78;3.65;;;27.50;53.20;;;;;;9180206;19;20042;-70
2022/07/18 13:18:16;;;;;;;9.63;3.92;;;27.60;51.60;;;;;;9179598;19;20022;-72
2022/07/18 13:21:20;;;;;;;7.72;3.50;;;27.70;51.80;;;;;;9180750;19;20043;-71
2022/07/18 13:24:24;;;;;;;5.15;3.17;;;27.50;52.00;;;;;;9176676;19;20018;-73
2022/07/18 13:27:28;;;;;;;6.07;3.20;;;27.60;53.10;;;;;;9180816;19;20018;-72
2022/07/18 13:30:32;;;;;;;4.40;3.03;;;27.80;52.10;;;;;;9178979;19;20105;-71
2022/07/18 13:33:39;;;;;;;4.47;3.13;;;27.80;52.00;;;;;;9179489;19;20014;-71
2022/07/18 13:36:43;;;;;;;5.53;3.05;;;28.10;51.40;;;;;;9180292;19;20047;-69
2022/07/18 13:39:47;;;;;;;4.97;3.30;;;28.20;51.00;;;;;;9175982;19;20018;-75
2022/07/18 13:42:51;;;;;;;5.72;2.95;;;28.40;50.70;;;;;;9179708;19;20014;-69
2022/07/18 13:45:55;;;;;;;9.35;3.17;;;28.50;51.00;;;;;;9174882;19;20082;-72
2022/07/18 13:49:02;;;;;;;10.00;3.88;;;28.90;49.60;;;;;;9179074;19;20018;-69
2022/07/18 13:52:07;;;;;;;5.22;3.28;;;28.80;49.60;;;;;;9175861;19;20509;-69
2022/07/18 13:55:12;;;;;;;5.00;3.30;;;29.30;48.80;;;;;;9176429;19;20015;-70
2022/07/18 13:58:17;;;;;;;11.13;4.10;;;29.30;49.40;;;;;;9178381;19;20015;-70
2022/07/18 14:01:21;;;;;;;5.07;3.22;;;29.40;49.00;;;;;;9175263;19;20010;-71
2022/07/18 14:04:28;;;;;;;5.07;3.13;;;29.80;48.10;;;;;;9177351;19;20298;-71
2022/07/18 14:07:32;;;;;;;6.93;3.05;;;30.10;48.70;;;;;;9034023;19;20015;-73
2022/07/18 14:10:37;;;;;;;6.53;3.00;;;30.00;47.30;;;;;;9177710;19;20025;-71
2022/07/18 14:13:41;;;;;;;4.50;2.67;;;30.30;48.00;;;;;;9179690;19;20033;-71
2022/07/18 14:16:45;;;;;;;4.88;3.00;;;30.30;47.30;;;;;;9177294;19;20615;-72
2022/07/18 14:19:52;;;;;;;4.72;2.95;;;30.60;46.80;;;;;;9175523;19;20052;-73
2022/07/18 14:22:56;;;;;;;5.30;3.05;;;30.80;45.20;;;;;;9185486;19;20496;-73
2022/07/18 14:26:00;;;;;;;4.82;2.97;;;31.10;45.70;;;;;;9184122;19;20018;-73
2022/07/18 14:29:04;;;;;;;5.10;3.38;;;31.20;45.50;;;;;;9186713;19;20010;-72
2022/07/18 14:32:09;;;;;;;14.88;7.03;;;31.30;45.40;;;;;;9185284;19;20421;-75
2022/07/18 14:35:15;;;;;;;4.95;3.22;;;31.20;43.90;;;;;;9189785;19;20014;-74
2022/07/18 14:38:19;;;;;;;4.25;2.88;;;31.20;44.80;;;;;;9185406;19;20022;-74
2022/07/18 14:41:23;;;;;;;6.75;3.10;;;31.40;44.90;;;;;;9187474;19;20015;-74
2022/07/18 14:44:27;;;;;;;4.25;2.90;;;30.90;44.60;;;;;;9186688;19;20576;-73
2022/07/18 14:47:33;;;;;;;4.15;2.70;;;30.80;46.10;;;;;;9185763;19;20097;-76
2022/07/18 14:50:39;;;;;;;4.60;3.05;;;31.00;44.30;;;;;;9188343;19;20018;-73
2022/07/18 14:53:44;;;;;;;5.03;3.20;;;31.20;45.10;;;;;;9187884;19;20022;-74
2022/07/18 14:56:48;;;;;;;8.10;3.30;;;31.40;44.50;;;;;;9186276;19;20015;-73
2022/07/18 14:59:52;;;;;;;4.70;2.95;;;31.30;43.70;;;;;;9183356;19;20424;-72
2022/07/18 15:02:56;;;;;;;8.10;3.50;;;31.20;42.90;;;;;;9185295;19;20088;-73
2022/07/18 15:06:02;;;;;;;5.10;2.80;;;31.40;42.80;;;;;;9184712;19;20363;-72
2022/07/18 15:09:06;;;;;;;5.35;2.92;;;31.40;42.70;;;;;;9181496;19;20015;-73
2022/07/18 15:12:10;;;;;;;5.50;2.88;;;31.10;43.60;;;;;;9182239;19;20011;-74
2022/07/18 15:15:14;;;;;;;5.18;2.90;;;31.00;43.20;;;;;;9183625;19;20010;-73
2022/07/18 15:18:18;;;;;;;6.22;3.10;;;30.50;44.00;;;;;;9183509;19;20021;-71
2022/07/18 15:21:24;;;;;;;5.70;3.10;;;30.70;43.70;;;;;;9182937;19;20392;-70
2022/07/18 15:24:28;;;;;;;3.97;2.90;;;30.30;44.50;;;;;;9180048;19;20014;-72
2022/07/18 15:27:33;;;;;;;51.28;6.30;;;29.90;45.10;;;;;;9180483;19;20018;-72
2022/07/18 15:30:37;;;;;;;7.05;3.17;;;30.90;47.50;;;;;;9174259;19;20014;-72
2022/07/18 15:33:41;;;;;;;4.32;3.10;;;29.80;47.20;;;;;;9181528;19;20034;-69
2022/07/18 15:36:47;;;;;;;4.45;3.00;;;29.60;47.60;;;;;;9183934;19;20023;-71
2022/07/18 15:39:51;;;;;;;6.03;2.95;;;29.40;47.50;;;;;;9176055;19;20014;-70
2022/07/18 15:42:55;;;;;;;6.93;3.00;;;29.20;47.70;;;;;;9183691;19;20017;-75
2022/07/18 15:45:59;;;;;;;4.80;3.10;;;29.10;49.90;;;;;;9179365;19;20019;-74
2022/07/18 15:49:02;;;;;;;5.68;2.97;;;29.10;49.60;;;;;;9181127;19;20023;-76
2022/07/18 15:52:09;;;;;;;5.78;2.60;;;29.20;48.80;;;;;;9185708;19;20018;-72
2022/07/18 15:55:14;;;;;;;5.55;3.30;;;29.50;48.00;;;;;;9183053;19;20490;-74
2022/07/18 15:58:18;;;;;;;8.00;3.55;;;29.90;47.20;;;;;;9183925;19;20018;-73
2022/07/18 16:01:22;;;;;;;4.05;2.65;;;30.40;46.20;;;;;;9179166;19;20010;-74